createdAt,value
2018-03-04T00:01:46.736Z,76.37
2018-03-04T00:04:14.755Z,76.25
2018-03-04T00:06:42.743Z,76.66
2018-03-04T00:09:10.750Z,76.41
2018-03-04T00:11:38.815Z,76.13
2018-03-04T00:14:06.823Z,76.41
2018-03-04T00:16:34.823Z,76.91
2018-03-04T00:19:02.890Z,76.85
2018-03-04T00:21:30.860Z,76.47
2018-03-04T00:23:58.871Z,76.02
2018-03-04T00:26:26.873Z,76.61
2018-03-04T00:28:54.877Z,76.56
2018-03-04T00:31:22.910Z,76.47
2018-03-04T00:33:51.763Z,76.85
2018-03-04T00:36:19.979Z,76.92
2018-03-04T00:38:48.001Z,76.92
2018-03-04T00:41:16.145Z,76.49
2018-03-04T00:43:44.125Z,76.96
2018-03-04T00:46:12.134Z,77.50
2018-03-04T00:48:40.124Z,77.45
2018-03-04T00:51:08.141Z,77.23
2018-03-04T00:53:36.138Z,77.23
2018-03-04T00:56:04.173Z,77.11
2018-03-04T00:58:32.166Z,76.72
2018-03-04T01:01:00.220Z,77.24
2018-03-04T01:03:28.248Z,77.21
2018-03-04T01:05:56.332Z,77.02
2018-03-04T01:08:24.375Z,77.58
2018-03-04T01:10:52.405Z,77.88
2018-03-04T01:13:20.398Z,77.45
2018-03-04T01:15:48.418Z,76.76
2018-03-04T01:18:16.453Z,77.44
2018-03-04T01:20:44.454Z,77.44
2018-03-04T01:23:12.499Z,77.29
2018-03-04T01:25:40.526Z,77.02
2018-03-04T01:28:08.598Z,77.33
2018-03-04T01:30:36.726Z,76.82
2018-03-04T01:33:04.746Z,77.47
2018-03-04T01:35:32.823Z,76.78
2018-03-04T01:38:00.881Z,77.30
2018-03-04T01:40:28.922Z,77.05
2018-03-04T01:42:56.995Z,76.92
2018-03-04T01:45:25.015Z,77.33
2018-03-04T01:47:53.036Z,77.44
2018-03-04T01:50:21.100Z,77.43
2018-03-04T01:52:49.130Z,76.98
2018-03-04T01:55:17.159Z,77.49
2018-03-04T01:57:45.220Z,77.38
2018-03-04T02:00:13.209Z,77.54
2018-03-04T02:02:41.226Z,77.24
2018-03-04T02:05:09.250Z,77.16
2018-03-04T02:07:37.313Z,77.17
2018-03-04T02:10:05.324Z,77.46
2018-03-04T02:12:33.364Z,77.11
2018-03-04T02:15:01.393Z,77.40
2018-03-04T02:17:29.405Z,76.98
2018-03-04T02:19:57.433Z,77.14
2018-03-04T02:22:25.437Z,77.05
2018-03-04T02:24:53.455Z,77.37
2018-03-04T02:27:21.478Z,77.43
2018-03-04T02:29:49.470Z,77.24
2018-03-04T02:32:17.532Z,76.62
2018-03-04T02:34:45.627Z,77.08
2018-03-04T02:37:13.656Z,77.34
2018-03-04T02:39:41.698Z,77.11
2018-03-04T02:42:09.735Z,77.44
2018-03-04T02:44:37.981Z,77.82
2018-03-04T02:47:06.037Z,77.24
2018-03-04T02:49:34.053Z,78.09
2018-03-04T02:52:02.086Z,78.46
2018-03-04T02:54:30.153Z,77.75
2018-03-04T02:56:58.169Z,78.04
2018-03-04T02:59:26.203Z,77.77
2018-03-04T03:01:54.198Z,77.52
2018-03-04T03:04:22.237Z,78.18
2018-03-04T03:06:50.234Z,78.02
2018-03-04T03:09:18.217Z,77.86
2018-03-04T03:11:46.249Z,77.65
2018-03-04T03:14:14.247Z,78.40
2018-03-04T03:16:42.335Z,78.64
2018-03-04T03:19:10.362Z,78.59
2018-03-04T03:21:38.378Z,78.26
2018-03-04T03:24:06.390Z,78.58
2018-03-04T03:26:34.597Z,78.40
2018-03-04T03:29:02.650Z,78.63
2018-03-04T03:31:30.651Z,78.89
2018-03-04T03:33:58.689Z,78.73
2018-03-04T03:36:26.691Z,78.63
2018-03-04T03:38:54.722Z,78.40
2018-03-04T03:41:22.731Z,77.80
2018-03-04T03:43:50.743Z,78.21
2018-03-04T03:46:18.764Z,78.11
2018-03-04T03:48:46.762Z,77.90
2018-03-04T03:51:14.785Z,78.40
2018-03-04T03:53:42.779Z,78.50
2018-03-04T03:56:10.817Z,78.01
2018-03-04T03:58:38.806Z,77.76
2018-03-04T04:01:06.790Z,77.85
2018-03-04T04:03:34.861Z,78.22
2018-03-04T04:06:02.906Z,78.04
2018-03-04T04:08:30.948Z,78.34
2018-03-04T04:10:58.980Z,78.10
2018-03-04T04:13:27.055Z,77.45
2018-03-04T04:15:55.079Z,77.83
2018-03-04T04:18:23.119Z,77.70
2018-03-04T04:20:51.131Z,78.01
2018-03-04T04:23:19.137Z,77.77
2018-03-04T04:25:47.203Z,77.69
2018-03-04T04:28:15.227Z,77.35
2018-03-04T04:30:43.250Z,77.72
2018-03-04T04:33:11.291Z,77.95
2018-03-04T04:35:39.291Z,78.07
2018-03-04T04:38:07.324Z,77.97
2018-03-04T04:40:35.266Z,78.14
2018-03-04T04:43:03.214Z,77.34
2018-03-04T04:45:31.166Z,77.66
2018-03-04T04:47:59.152Z,77.48
2018-03-04T04:50:27.073Z,77.46
2018-03-04T04:52:55.011Z,77.33
2018-03-04T04:55:22.938Z,77.62
2018-03-04T04:57:50.914Z,78.70
2018-03-04T05:00:18.842Z,78.47
2018-03-04T05:02:46.765Z,77.78
2018-03-04T05:05:14.761Z,77.77
2018-03-04T05:07:42.705Z,77.44
2018-03-04T05:10:10.646Z,77.56
2018-03-04T05:12:38.580Z,77.93
2018-03-04T05:15:06.530Z,77.92
2018-03-04T05:17:34.444Z,77.69
2018-03-04T05:20:02.422Z,77.60
2018-03-04T05:22:30.355Z,78.24
2018-03-04T05:24:58.286Z,77.93
2018-03-04T05:27:26.206Z,77.08
2018-03-04T05:29:54.167Z,76.90
2018-03-04T05:32:22.097Z,77.44
2018-03-04T05:34:50.880Z,77.68
2018-03-04T05:37:18.827Z,77.40
2018-03-04T05:39:46.766Z,76.68
2018-03-04T05:42:14.739Z,76.99
2018-03-04T05:44:42.682Z,77.24
2018-03-04T05:47:10.629Z,77.98
2018-03-04T05:49:38.589Z,77.83
2018-03-04T05:52:06.510Z,77.47
2018-03-04T05:54:34.418Z,77.44
2018-03-04T05:57:02.373Z,77.53
2018-03-04T05:59:30.293Z,77.37
2018-03-04T06:01:58.239Z,77.65
2018-03-04T06:04:26.179Z,77.53
2018-03-04T06:06:54.090Z,77.39
2018-03-04T06:09:22.059Z,77.34
2018-03-04T06:11:49.992Z,77.19
2018-03-04T06:14:17.903Z,77.55
2018-03-04T06:16:45.829Z,77.17
2018-03-04T06:19:13.757Z,76.91
2018-03-04T06:21:41.706Z,76.57
2018-03-04T06:24:09.632Z,76.21
2018-03-04T06:26:37.574Z,75.78
2018-03-04T06:29:05.678Z,76.19
2018-03-04T06:31:33.604Z,76.12
2018-03-04T06:34:01.556Z,76.11
2018-03-04T06:36:29.488Z,75.89
2018-03-04T06:38:57.428Z,75.79
2018-03-04T06:41:25.364Z,75.95
2018-03-04T06:43:53.289Z,75.93
2018-03-04T06:46:21.218Z,75.71
2018-03-04T06:48:49.148Z,75.10
2018-03-04T06:51:17.133Z,75.17
2018-03-04T06:53:45.810Z,74.84
2018-03-04T06:56:13.732Z,74.65
2018-03-04T06:58:41.678Z,74.96
2018-03-04T07:01:09.630Z,74.68
2018-03-04T07:03:37.578Z,74.32
2018-03-04T07:06:05.526Z,73.99
2018-03-04T07:08:33.473Z,73.90
2018-03-04T07:11:01.400Z,73.79
2018-03-04T07:13:29.355Z,73.52
2018-03-04T07:15:57.265Z,72.74
2018-03-04T07:18:25.201Z,72.32
2018-03-04T07:20:53.133Z,72.03
2018-03-04T07:23:21.091Z,70.42
2018-03-04T07:25:49.103Z,68.58
2018-03-04T07:28:17.080Z,67.60
2018-03-04T07:30:45.009Z,66.43
2018-03-04T07:33:12.918Z,64.69
2018-03-04T07:35:40.946Z,63.66
2018-03-04T07:38:09.018Z,63.89
2018-03-04T07:40:36.998Z,64.02
2018-03-04T07:43:04.896Z,64.95
2018-03-04T07:45:32.845Z,65.99
2018-03-04T07:48:00.801Z,65.37
2018-03-04T07:50:28.820Z,65.78
2018-03-04T07:52:56.816Z,65.91
2018-03-04T07:55:24.748Z,65.90
2018-03-04T07:57:53.234Z,65.23
2018-03-04T08:00:21.201Z,65.33
2018-03-04T08:02:49.174Z,65.15
2018-03-04T08:05:19.707Z,65.53
2018-03-04T08:08:24.630Z,66.17
2018-03-04T08:13:56.086Z,66.11
2018-03-04T08:16:43.574Z,66.56
2018-03-04T08:19:18.489Z,66.40
2018-03-04T08:21:46.432Z,66.43
2018-03-04T08:24:14.397Z,66.21
2018-03-04T08:26:54.315Z,66.14
2018-03-04T08:29:22.248Z,66.47
2018-03-04T08:31:50.188Z,66.89
2018-03-04T08:34:18.140Z,66.65
2018-03-04T08:36:46.156Z,65.78
2018-03-04T08:39:14.082Z,64.70
2018-03-04T08:41:42.058Z,64.71
2018-03-04T08:44:10.104Z,68.71
2018-03-04T08:46:38.155Z,68.21
2018-03-04T08:49:06.146Z,63.72
2018-03-04T08:51:34.074Z,61.96
2018-03-04T08:54:01.985Z,61.63
2018-03-04T08:56:30.018Z,61.31
2018-03-04T08:58:57.938Z,60.99
2018-03-04T09:01:25.931Z,60.28
2018-03-04T09:03:53.883Z,58.49
2018-03-04T09:06:21.831Z,56.91
2018-03-04T09:08:49.814Z,55.34
2018-03-04T09:11:17.744Z,54.91
2018-03-04T09:13:46.654Z,53.07
2018-03-04T09:16:14.627Z,52.14
2018-03-04T09:18:42.556Z,51.79
2018-03-04T09:21:10.497Z,50.32
2018-03-04T09:23:38.451Z,49.60
2018-03-04T09:26:06.434Z,51.81
2018-03-04T09:28:34.398Z,53.12
2018-03-04T09:31:02.353Z,52.66
2018-03-04T09:33:30.293Z,54.17
2018-03-04T09:35:58.232Z,55.09
2018-03-04T09:38:26.213Z,55.37
2018-03-04T09:40:54.385Z,57.04
2018-03-04T09:43:22.304Z,57.45
2018-03-04T09:45:50.254Z,58.06
2018-03-04T09:48:18.183Z,57.65
2018-03-04T09:50:46.109Z,58.41
2018-03-04T09:53:14.103Z,57.96
2018-03-04T09:55:42.047Z,59.69
2018-03-04T09:58:09.966Z,60.16
2018-03-04T10:00:37.919Z,59.38
2018-03-04T10:03:05.852Z,59.63
2018-03-04T10:05:33.780Z,60.96
2018-03-04T10:08:01.748Z,60.24
2018-03-04T10:10:29.656Z,60.41
2018-03-04T10:12:57.581Z,59.77
2018-03-04T10:15:25.524Z,60.65
2018-03-04T10:17:53.468Z,60.19
2018-03-04T10:20:21.403Z,61.71
2018-03-04T10:22:49.349Z,61.61
2018-03-04T10:25:17.315Z,61.21
2018-03-04T10:27:45.264Z,60.19
2018-03-04T10:30:13.215Z,60.02
2018-03-04T10:32:41.141Z,59.92
2018-03-04T10:35:09.092Z,60.38
2018-03-04T10:37:37.021Z,59.57
2018-03-04T10:40:04.986Z,58.60
2018-03-04T10:42:32.999Z,57.61
2018-03-04T10:45:00.912Z,56.75
2018-03-04T10:47:28.868Z,57.24
2018-03-04T10:49:56.805Z,57.43
2018-03-04T10:52:24.797Z,56.13
2018-03-04T10:54:52.695Z,57.65
2018-03-04T10:57:20.624Z,56.86
2018-03-04T10:59:48.544Z,56.75
2018-03-04T11:02:17.435Z,56.40
2018-03-04T11:04:45.366Z,57.26
2018-03-04T11:07:14.232Z,56.00
2018-03-04T11:09:42.221Z,56.31
2018-03-04T11:12:10.126Z,56.32
2018-03-04T11:14:38.095Z,56.52
2018-03-04T11:17:06.080Z,55.47
2018-03-04T11:19:34.053Z,54.52
2018-03-04T11:22:02.000Z,54.55
2018-03-04T11:24:29.934Z,53.75
2018-03-04T11:26:57.908Z,52.53
2018-03-04T11:29:25.912Z,51.33
2018-03-04T11:31:53.837Z,49.52
2018-03-04T11:34:21.762Z,48.53
2018-03-04T11:36:49.686Z,46.28
2018-03-04T11:39:17.728Z,44.84
2018-03-04T11:41:45.615Z,45.86
2018-03-04T11:44:13.552Z,45.00
2018-03-04T11:46:41.494Z,45.99
2018-03-04T11:49:09.406Z,45.90
2018-03-04T11:51:37.355Z,44.35
2018-03-04T11:54:05.261Z,44.09
2018-03-04T11:56:33.258Z,43.58
2018-03-04T11:59:01.141Z,44.06
2018-03-04T12:01:29.062Z,43.46
2018-03-04T12:03:57.033Z,43.26
2018-03-04T12:06:24.958Z,44.16
2018-03-04T12:08:52.912Z,43.66
2018-03-04T12:11:20.822Z,43.67
2018-03-04T12:13:48.791Z,43.38
2018-03-04T12:16:16.714Z,43.58
2018-03-04T12:18:44.675Z,44.34
2018-03-04T12:21:12.646Z,44.38
2018-03-04T12:23:40.588Z,44.12
2018-03-04T12:26:08.519Z,43.75
2018-03-04T12:28:36.609Z,43.71
2018-03-04T12:31:04.627Z,44.50
2018-03-04T12:33:32.565Z,44.76
2018-03-04T12:36:00.543Z,44.79
2018-03-04T12:38:28.509Z,44.42
2018-03-04T12:40:56.513Z,46.97
2018-03-04T12:43:24.607Z,47.12
2018-03-04T12:45:52.551Z,47.22
2018-03-04T12:48:20.526Z,46.64
2018-03-04T12:50:48.491Z,47.16
2018-03-04T12:53:16.511Z,45.83
2018-03-04T12:55:44.502Z,46.22
2018-03-04T12:58:12.449Z,45.67
2018-03-04T13:00:40.655Z,45.82
2018-03-04T13:03:08.591Z,45.34
2018-03-04T13:05:36.528Z,45.90
2018-03-04T13:08:04.477Z,45.96
2018-03-04T13:10:33.325Z,44.96
2018-03-04T13:13:01.352Z,44.89
2018-03-04T13:15:29.248Z,44.74
2018-03-04T13:17:57.175Z,46.52
2018-03-04T13:20:25.206Z,47.47
2018-03-04T13:22:53.137Z,47.52
2018-03-04T13:25:21.085Z,47.12
2018-03-04T13:27:49.259Z,47.70
2018-03-04T13:30:17.214Z,47.83
2018-03-04T13:32:45.142Z,48.92
2018-03-04T13:35:13.093Z,49.68
2018-03-04T13:37:41.017Z,50.71
2018-03-04T13:40:08.950Z,51.43
2018-03-04T13:42:36.885Z,51.91
2018-03-04T13:45:04.806Z,53.01
2018-03-04T13:47:32.764Z,53.56
2018-03-04T13:50:00.722Z,53.85
2018-03-04T13:52:28.640Z,54.38
2018-03-04T13:54:56.660Z,54.17
2018-03-04T13:57:24.668Z,54.78
2018-03-04T13:59:52.627Z,55.17
2018-03-04T14:02:20.572Z,55.02
2018-03-04T14:04:48.515Z,55.50
2018-03-04T14:07:16.483Z,55.42
2018-03-04T14:09:44.439Z,55.15
2018-03-04T14:12:12.369Z,54.99
2018-03-04T14:14:40.297Z,53.82
2018-03-04T14:17:08.281Z,54.32
2018-03-04T14:19:36.233Z,53.42
2018-03-04T14:22:04.159Z,53.51
2018-03-04T14:24:32.114Z,54.00
2018-03-04T14:27:00.043Z,54.29
2018-03-04T14:29:28.003Z,53.53
2018-03-04T14:31:55.913Z,52.86
2018-03-04T14:34:23.856Z,53.19
2018-03-04T14:36:51.810Z,52.67
2018-03-04T14:39:19.741Z,52.61
2018-03-04T14:41:47.783Z,52.88
2018-03-04T14:44:15.675Z,53.20
2018-03-04T14:46:43.624Z,52.89
2018-03-04T14:49:11.560Z,52.63
2018-03-04T14:51:39.536Z,52.70
2018-03-04T14:54:07.475Z,53.01
2018-03-04T14:56:35.503Z,53.41
2018-03-04T14:59:03.493Z,53.26
2018-03-04T15:01:31.442Z,54.00
2018-03-04T15:03:59.400Z,53.86
2018-03-04T15:06:27.322Z,53.94
2018-03-04T15:08:55.271Z,53.94
2018-03-04T15:11:23.176Z,53.34
2018-03-04T15:13:51.169Z,53.41
2018-03-04T15:16:19.103Z,53.84
2018-03-04T15:18:47.067Z,53.86
2018-03-04T15:21:15.012Z,54.57
2018-03-04T15:23:42.974Z,54.63
2018-03-04T15:26:11.066Z,53.91
2018-03-04T15:28:39.004Z,54.12
2018-03-04T15:31:06.999Z,53.61
2018-03-04T15:33:34.904Z,55.06
2018-03-04T15:36:02.872Z,55.20
2018-03-04T15:38:30.857Z,54.83
2018-03-04T15:40:58.802Z,54.94
2018-03-04T15:43:26.752Z,55.22
2018-03-04T15:45:54.692Z,55.34
2018-03-04T15:48:22.878Z,54.89
2018-03-04T15:50:50.846Z,55.43
2018-03-04T15:53:18.777Z,55.07
2018-03-04T15:55:47.063Z,54.60
2018-03-04T15:58:14.987Z,54.60
2018-03-04T16:00:42.943Z,55.49
2018-03-04T16:03:10.999Z,54.86
2018-03-04T16:05:38.942Z,54.53
2018-03-04T16:08:06.896Z,54.49
2018-03-04T16:10:34.848Z,54.59
2018-03-04T16:13:02.836Z,54.48
2018-03-04T16:15:30.819Z,54.51
2018-03-04T16:17:58.748Z,54.36
2018-03-04T16:20:26.821Z,54.82
2018-03-04T16:22:54.798Z,54.79
2018-03-04T16:25:22.770Z,55.90
2018-03-04T16:27:50.701Z,55.87
2018-03-04T16:30:18.653Z,56.03
2018-03-04T16:32:46.577Z,56.77
2018-03-04T16:35:14.589Z,56.95
2018-03-04T16:37:42.538Z,56.99
2018-03-04T16:40:10.478Z,57.60
2018-03-04T16:42:38.396Z,57.63
2018-03-04T16:45:06.323Z,57.71
2018-03-04T16:47:34.258Z,58.19
2018-03-04T16:50:02.230Z,58.50
2018-03-04T16:52:30.166Z,58.74
2018-03-04T16:54:58.120Z,58.16
2018-03-04T16:57:26.065Z,58.36
2018-03-04T16:59:54.002Z,58.29
2018-03-04T17:02:21.952Z,58.72
2018-03-04T17:04:49.950Z,58.58
2018-03-04T17:07:17.905Z,58.27
2018-03-04T17:09:45.848Z,58.94
2018-03-04T17:12:13.776Z,58.69
2018-03-04T17:14:41.720Z,58.80
2018-03-04T17:17:09.657Z,58.83
2018-03-04T17:19:37.603Z,58.63
2018-03-04T17:22:05.553Z,59.10
2018-03-04T17:24:33.486Z,58.89
2018-03-04T17:27:01.444Z,58.54
2018-03-04T17:29:29.360Z,58.39
2018-03-04T17:31:57.351Z,58.25
2018-03-04T17:34:25.361Z,58.57
2018-03-04T17:36:53.537Z,58.98
2018-03-04T17:39:21.484Z,59.49
2018-03-04T17:41:49.433Z,59.18
2018-03-04T17:44:17.409Z,58.90
2018-03-04T17:46:45.325Z,59.55
2018-03-04T17:49:13.284Z,58.60
2018-03-04T17:51:41.283Z,58.89
2018-03-04T17:54:09.223Z,59.16
2018-03-04T17:56:38.784Z,59.26
2018-03-04T17:59:07.802Z,59.57
2018-03-04T18:01:35.746Z,59.31
2018-03-04T18:04:03.764Z,59.55
2018-03-04T18:06:31.876Z,59.61
2018-03-04T18:08:59.949Z,59.40
2018-03-04T18:11:27.878Z,59.25
2018-03-04T18:13:55.850Z,59.36
2018-03-04T18:16:23.793Z,59.50
2018-03-04T18:18:51.730Z,59.24
2018-03-04T18:21:19.710Z,59.58
2018-03-04T18:23:47.644Z,59.78
2018-03-04T18:26:15.592Z,60.05
2018-03-04T18:28:43.621Z,59.97
2018-03-04T18:31:11.608Z,59.49
2018-03-04T18:33:39.512Z,59.90
2018-03-04T18:36:07.458Z,59.94
2018-03-04T18:38:35.390Z,59.86
2018-03-04T18:41:03.325Z,59.67
2018-03-04T18:43:31.284Z,59.43
2018-03-04T18:45:59.261Z,59.54
2018-03-04T18:48:27.201Z,59.23
2018-03-04T18:50:55.125Z,59.80
2018-03-04T18:53:23.054Z,59.77
2018-03-04T18:55:51.069Z,60.01
2018-03-04T18:58:18.997Z,60.39
2018-03-04T19:00:46.973Z,59.48
2018-03-04T19:03:15.048Z,59.77
2018-03-04T19:05:43.000Z,59.54
2018-03-04T19:08:11.064Z,59.67
2018-03-04T19:10:38.997Z,59.83
2018-03-04T19:13:06.958Z,59.43
2018-03-04T19:15:35.243Z,59.40
2018-03-04T19:18:03.257Z,59.78
2018-03-04T19:20:31.179Z,60.18
2018-03-04T19:22:59.098Z,60.08
2018-03-04T19:25:27.030Z,59.56
2018-03-04T19:27:54.956Z,59.20
2018-03-04T19:30:22.926Z,59.65
2018-03-04T19:32:50.868Z,59.92
2018-03-04T19:35:18.866Z,60.05
2018-03-04T19:37:46.857Z,60.03
2018-03-04T19:40:14.793Z,60.02
2018-03-04T19:42:42.841Z,60.23
2018-03-04T19:45:10.788Z,60.15
2018-03-04T19:47:38.769Z,59.87
2018-03-04T19:50:06.679Z,59.78
2018-03-04T19:52:34.648Z,59.67
2018-03-04T19:55:02.679Z,60.13
2018-03-04T19:57:30.704Z,60.09
2018-03-04T19:59:58.601Z,60.88
2018-03-04T20:02:26.528Z,61.23
2018-03-04T20:04:54.466Z,62.01
2018-03-04T20:07:22.385Z,60.59
2018-03-04T20:09:50.358Z,60.28
2018-03-04T20:12:18.282Z,60.83
2018-03-04T20:14:46.218Z,61.41
2018-03-04T20:17:14.169Z,60.28
2018-03-04T20:19:42.109Z,61.09
2018-03-04T20:22:10.107Z,60.04
2018-03-04T20:24:38.138Z,60.37
2018-03-04T20:27:06.106Z,60.25
2018-03-04T20:29:34.085Z,59.93
2018-03-04T20:32:02.022Z,61.08
2018-03-04T20:34:30.008Z,60.12
2018-03-04T20:36:58.090Z,60.18
2018-03-04T20:39:26.047Z,60.63
2018-03-04T20:41:53.966Z,60.50
2018-03-04T20:44:21.939Z,60.86
2018-03-04T20:46:50.070Z,60.85
2018-03-04T20:49:18.670Z,61.02
2018-03-04T20:51:46.611Z,60.43
2018-03-04T20:54:14.527Z,60.22
2018-03-04T20:56:42.494Z,60.28
2018-03-04T20:59:10.464Z,60.19
2018-03-04T21:01:38.401Z,60.51
2018-03-04T21:04:06.360Z,60.45
2018-03-04T21:06:34.329Z,59.99
2018-03-04T21:09:02.239Z,60.20
2018-03-04T21:11:30.185Z,59.94
2018-03-04T21:13:58.188Z,59.99
2018-03-04T21:16:26.111Z,60.30
2018-03-04T21:18:54.126Z,60.65
2018-03-04T21:21:22.057Z,59.92
2018-03-04T21:23:50.019Z,59.81
2018-03-04T21:26:17.948Z,60.20
2018-03-04T21:28:45.965Z,60.77
2018-03-04T21:31:13.897Z,60.34
2018-03-04T21:33:41.858Z,59.86
2018-03-04T21:36:09.793Z,59.93
2018-03-04T21:38:37.700Z,60.29
2018-03-04T21:41:05.789Z,59.90
2018-03-04T21:43:33.781Z,59.54
2018-03-04T21:46:01.746Z,60.22
2018-03-04T21:48:29.701Z,60.03
2018-03-04T21:50:57.720Z,60.46
2018-03-04T21:53:25.714Z,60.37
2018-03-04T21:55:53.622Z,59.96
2018-03-04T21:58:21.548Z,60.35
2018-03-04T22:00:49.461Z,60.12
2018-03-04T22:03:17.524Z,59.99
2018-03-04T22:05:45.430Z,60.59
2018-03-04T22:08:13.364Z,60.66
2018-03-04T22:10:41.305Z,61.02
2018-03-04T22:13:09.218Z,60.95
2018-03-04T22:15:37.165Z,60.76
2018-03-04T22:18:05.154Z,60.82
2018-03-04T22:20:33.112Z,61.11
2018-03-04T22:23:01.579Z,61.08
2018-03-04T22:25:29.944Z,60.88
2018-03-04T22:27:58.504Z,61.68
2018-03-04T22:30:26.520Z,61.81
2018-03-04T22:32:54.490Z,62.05
2018-03-04T22:35:22.406Z,62.35
2018-03-04T22:37:50.324Z,62.41
2018-03-04T22:40:18.272Z,62.04
2018-03-04T22:42:46.261Z,62.39
2018-03-04T22:45:14.189Z,62.37
2018-03-04T22:47:42.116Z,61.83
2018-03-04T22:50:10.080Z,62.02
2018-03-04T22:52:38.051Z,61.51
2018-03-04T22:55:06.010Z,62.41
2018-03-04T22:57:33.950Z,61.87
2018-03-04T23:00:01.886Z,62.15
2018-03-04T23:02:29.823Z,62.41
2018-03-04T23:04:58.509Z,62.15
2018-03-04T23:07:26.441Z,61.84
2018-03-04T23:09:54.381Z,61.57
2018-03-04T23:12:22.313Z,62.32
2018-03-04T23:14:50.216Z,62.34
2018-03-04T23:17:18.150Z,61.97
2018-03-04T23:19:46.119Z,62.20
2018-03-04T23:22:14.077Z,61.98
2018-03-04T23:24:41.990Z,62.35
2018-03-04T23:27:10.864Z,62.12
2018-03-04T23:29:38.814Z,62.28
2018-03-04T23:32:06.775Z,62.25
2018-03-04T23:34:34.696Z,62.28
2018-03-04T23:37:02.623Z,61.94
2018-03-04T23:39:30.687Z,62.16
2018-03-04T23:41:58.665Z,62.50
2018-03-04T23:44:26.640Z,62.34
2018-03-04T23:46:54.590Z,61.57
2018-03-04T23:49:22.516Z,62.24
2018-03-04T23:51:50.448Z,61.96
2018-03-04T23:54:18.485Z,62.50
2018-03-04T23:56:46.410Z,62.66
2018-03-04T23:59:14.386Z,62.93
